Terminal Aerodrome Forecast
Issued by NWS

Home | Current Version | Previous Version | Text Only | Print | Product List | Glossary On
Versions: 1 2 3 4 5 6 7 8 9 10 11 12 13
709
FTUS43 KMQT 210521
TAFIWD
TAF
KIWD 210521Z 2106/2206 19010G17KT P6SM SCT200 WS010/20045KT
     FM211000 19012KT P6SM BKN200
     FM211800 18012G21KT P6SM BKN035
     FM220200 18011G23KT P6SM VCSH BKN035
     FM220500 19010KT P6SM VCSH OVC025=

USA.gov is the U.S. government's official web portal to all federal, state and local government web resources and services.